Preview of NWS' New Version of Forecast
This preview is not operational and should not be used for support decisions.

Terminal Aerodrome Forecast (TAF)

Issued by National Weather Service (NWS)

                            
000
FTUS42 KMFL 170300 AAB
TAFMIA
TAF AMD
KMIA 170300Z 1703/1806 27006KT P6SM -RA SCT020 OVC040
     FM170400 VRB03KT P6SM SCT015 BKN040 OVC070
     FM171600 19006KT P6SM VCSH SCT025 BKN035
     FM180000 35005KT P6SM VCSH SCT020 BKN035=